Time;durP1;ratioP1;P1;durP2;ratioP2;P2;SDS_P1;SDS_P2;PMS_P1;PMS_P2;Temp;Humidity;BMP_temperature;BMP_pressure;BME280_temperature;BME280_humidity;BME280_pressure;Samples;Min_cycle;Max_cycle;Signal;HPM_P1;HPM_P2
2021/08/11 00:00:15;;;;;;;;;;;;;;;23.34;73.36;100782.69;4984359;28;102744;-89
2021/08/11 00:02:41;;;;;;;6.57;5.97;;;;;;;23.34;73.24;100784.66;4968800;28;101791;-89
2021/08/11 00:05:09;;;;;;;6.68;6.07;;;;;;;23.33;73.37;100778.28;4983802;28;101791;-89
2021/08/11 00:07:36;;;;;;;6.30;5.80;;;;;;;23.33;73.07;100780.25;4984881;28;101995;-89
2021/08/11 00:10:04;;;;;;;6.53;6.00;;;;;;;23.33;73.11;100780.25;4983615;28;102756;-89
2021/08/11 00:12:32;;;;;;;6.60;6.00;;;;;;;23.34;73.31;100781.88;4984173;28;101811;-89
2021/08/11 00:15:02;;;;;;;6.22;5.68;;;;;;;23.33;73.26;100777.47;4983420;28;101955;-90
2021/08/11 00:17:46;;;;;;;6.32;5.82;;;;;;;23.33;73.23;100771.91;4980272;28;101950;-89
2021/08/11 00:20:12;;;;;;;7.55;6.05;;;;;;;23.33;73.23;100774.69;4983110;28;102913;-89
2021/08/11 00:22:39;;;;;;;5.88;5.38;;;;;;;23.33;73.23;100771.91;4983827;28;101933;-89
2021/08/11 00:25:07;;;;;;;6.10;5.50;;;;;;;23.33;73.08;100766.34;4983686;28;102185;-89
2021/08/11 00:27:34;;;;;;;5.93;5.47;;;;;;;23.32;73.20;100767.53;4984390;28;102038;-89
2021/08/11 00:30:04;;;;;;;5.90;5.35;;;;;;;23.32;73.12;100767.53;4980322;28;102729;-89
2021/08/11 00:32:31;;;;;;;6.18;5.68;;;;;;;23.31;73.18;100772.28;4982600;28;101782;-89
2021/08/11 00:34:58;;;;;;;5.90;5.40;;;;;;;23.31;73.15;100769.50;4982375;28;101766;-89
2021/08/11 00:37:24;;;;;;;6.20;5.70;;;;;;;23.32;73.11;100773.09;4979086;28;101952;-89
2021/08/11 00:39:52;;;;;;;5.82;5.30;;;;;;;23.31;73.28;100779.81;4983159;28;102769;-89
2021/08/11 00:42:18;;;;;;;6.20;5.60;;;;;;;23.32;73.39;100782.22;4982304;28;102090;-89
2021/08/11 00:44:45;;;;;;;6.00;5.50;;;;;;;23.33;73.06;100785.78;4992083;28;101870;-89
2021/08/11 00:47:15;;;;;;;5.53;5.03;;;;;;;23.31;73.02;100783.38;4994089;28;102062;-89
2021/08/11 00:49:43;;;;;;;6.15;5.65;;;;;;;23.30;73.24;100776.22;4983187;28;102784;-89
2021/08/11 00:52:10;;;;;;;6.35;5.75;;;;;;;23.31;73.44;100785.34;4983000;28;101826;-89
2021/08/11 00:54:37;;;;;;;6.07;5.57;;;;;;;23.31;73.10;100782.59;4983111;28;101713;-89
2021/08/11 00:57:05;;;;;;;5.53;5.10;;;;;;;23.30;73.24;100780.94;4984472;28;102161;-89
2021/08/11 00:59:36;;;;;;;5.72;5.13;;;;;;;23.31;73.29;100782.59;4983366;28;102456;-89
2021/08/11 01:02:04;;;;;;;6.05;5.57;;;;;;;23.31;73.00;100788.13;4983437;28;102088;-89
2021/08/11 01:04:34;;;;;;;7.10;5.70;;;;;;;23.31;73.23;100779.81;4983480;28;101857;-89
2021/08/11 01:07:02;;;;;;;5.72;5.07;;;;;;;23.31;73.12;100782.59;4983963;28;102270;-88
2021/08/11 01:09:31;;;;;;;5.90;5.40;;;;;;;23.30;73.25;100786.50;4979823;28;103128;-89
2021/08/11 01:11:59;;;;;;;5.63;5.18;;;;;;;23.31;73.06;100782.59;4978150;28;101916;-88
2021/08/11 01:14:27;;;;;;;5.32;4.93;;;;;;;23.31;73.20;100786.16;4970431;28;102033;-89
2021/08/11 01:16:53;;;;;;;6.15;5.65;;;;;;;23.30;73.05;100792.06;4980390;28;102107;-89
2021/08/11 01:19:21;;;;;;;6.00;5.50;;;;;;;23.31;73.24;100790.91;4973281;28;102702;-89
2021/08/11 01:21:54;;;;;;;5.45;5.05;;;;;;;23.30;73.07;100792.88;4973512;28;102089;-89
2021/08/11 01:24:29;;;;;;;5.57;5.07;;;;;;;23.30;73.24;100797.59;4966125;28;102076;-89
2021/08/11 01:27:14;;;;;;;5.38;4.97;;;;;;;23.30;73.20;100803.16;4977345;28;102090;-89
2021/08/11 01:29:58;;;;;;;5.35;4.85;;;;;;;23.31;73.12;100813.13;4979337;28;102824;-90
2021/08/11 01:32:37;;;;;;;5.22;4.82;;;;;;;23.30;73.23;100806.78;4974298;28;102188;-89
2021/08/11 01:35:09;;;;;;;5.07;4.57;;;;;;;23.30;73.33;100804.00;4976672;28;102194;-89
2021/08/11 01:37:38;;;;;;;5.38;4.88;;;;;;;23.30;72.94;100809.56;4976498;28;102080;-89
2021/08/11 01:40:08;;;;;;;5.63;4.95;;;;;;;23.30;72.95;100808.72;4975273;28;102866;-89
2021/08/11 01:42:37;;;;;;;5.13;4.65;;;;;;;23.28;73.09;100806.31;4973520;28;102232;-89
2021/08/11 01:45:06;;;;;;;;;;;;;;;23.29;73.22;100807.91;4975701;28;102194;-89
2021/08/11 01:47:38;;;;;;;5.00;4.60;;;;;;;23.30;73.23;100803.16;4977048;28;102231;-89
2021/08/11 01:50:08;;;;;;;5.25;4.75;;;;;;;23.28;73.14;100806.31;4973352;28;102429;-89
2021/08/11 01:52:43;;;;;;;5.05;4.57;;;;;;;23.27;73.06;100802.72;4975899;28;102225;-89
2021/08/11 01:55:13;;;;;;;5.15;4.65;;;;;;;23.27;73.21;100805.50;4973800;28;102220;-88
2021/08/11 01:57:43;;;;;;;5.28;4.78;;;;;;;23.27;73.14;100811.06;4977303;28;102162;-89
2021/08/11 02:00:11;;;;;;;5.60;5.10;;;;;;;23.30;73.26;100814.28;4972759;28;102885;-89
2021/08/11 02:02:39;;;;;;;5.50;5.00;;;;;;;23.27;73.06;100808.28;4976870;28;102701;-89
2021/08/11 02:05:09;;;;;;;5.10;4.70;;;;;;;23.28;73.25;100814.63;4976172;28;102206;-89
2021/08/11 02:07:37;;;;;;;5.05;4.55;;;;;;;23.27;73.24;100811.06;4977540;28;102286;-88
2021/08/11 02:10:06;;;;;;;5.43;4.93;;;;;;;23.28;73.07;100809.09;4977133;28;102717;-89
2021/08/11 02:12:33;;;;;;;4.88;4.38;;;;;;;23.27;73.01;100808.28;4972691;28;102123;-88
2021/08/11 02:15:01;;;;;;;5.22;4.82;;;;;;;23.27;73.42;100808.28;4974909;28;102416;-89
2021/08/11 02:17:29;;;;;;;4.85;4.45;;;;;;;23.27;72.94;100808.28;4976310;28;102196;-88
2021/08/11 02:19:55;;;;;;;5.10;4.60;;;;;;;23.27;73.09;100802.72;4975312;28;102854;-88
2021/08/11 02:22:24;;;;;;;4.88;4.47;;;;;;;23.26;73.14;100809.44;4978005;28;102163;-88
2021/08/11 02:24:51;;;;;;;5.45;4.95;;;;;;;23.26;73.12;100820.56;4979277;28;102173;-88
2021/08/11 02:27:20;;;;;;;4.93;4.53;;;;;;;23.26;73.26;100815.00;4976073;28;102102;-89
2021/08/11 02:29:51;;;;;;;5.15;4.72;;;;;;;23.26;72.96;100814.16;4978104;28;103598;-88
2021/08/11 02:32:24;;;;;;;4.80;4.40;;;;;;;23.27;73.01;100818.59;4976599;28;102194;-88
2021/08/11 02:35:01;;;;;;;4.78;4.38;;;;;;;23.25;72.94;100813.38;4976439;28;102070;-88
2021/08/11 02:37:37;;;;;;;4.85;4.45;;;;;;;23.26;72.87;100831.66;4983577;28;102284;-89
2021/08/11 02:40:08;;;;;;;4.97;4.50;;;;;;;23.26;73.00;100820.56;4979554;28;102126;-88
2021/08/11 02:42:40;;;;;;;4.78;4.38;;;;;;;23.26;73.19;100828.88;4978973;28;102054;-88
2021/08/11 02:45:10;;;;;;;4.72;4.30;;;;;;;23.26;73.00;100826.13;4979646;28;102208;-88
2021/08/11 02:47:39;;;;;;;4.95;4.55;;;;;;;23.25;73.20;100818.91;4976657;28;102038;-88
2021/08/11 02:50:08;;;;;;;5.22;4.13;;;;;;;23.26;72.92;100817.78;4980787;28;102053;-88
2021/08/11 02:52:37;;;;;;;4.28;3.88;;;;;;;23.25;73.18;100818.13;4980367;28;102188;-88
2021/08/11 02:55:06;;;;;;;5.30;4.18;;;;;;;23.25;73.01;100818.91;4980059;28;102723;-88
2021/08/11 02:57:34;;;;;;;4.47;4.07;;;;;;;23.24;72.91;100822.88;4984941;28;102228;-88
2021/08/11 03:00:00;;;;;;;4.80;4.40;;;;;;;23.24;72.73;100817.31;4980038;28;102720;-88
2021/08/11 03:02:27;;;;;;;4.50;4.10;;;;;;;23.24;72.84;100822.88;4980861;28;102129;-88
2021/08/11 03:04:54;;;;;;;5.30;4.70;;;;;;;23.24;72.92;100825.66;4981042;28;102209;-88
2021/08/11 03:07:21;;;;;;;4.82;4.43;;;;;;;23.24;72.88;100828.44;4987988;28;102043;-89
2021/08/11 03:09:50;;;;;;;5.10;4.70;;;;;;;23.24;72.91;100822.88;4972826;28;102783;-88
2021/08/11 03:12:17;;;;;;;6.03;5.43;;;;;;;23.24;72.76;100828.44;4979000;28;102179;-89
2021/08/11 03:14:45;;;;;;;5.95;5.25;;;;;;;23.25;72.88;100829.22;4978158;28;102267;-88
2021/08/11 03:17:15;;;;;;;6.70;5.90;;;;;;;23.24;72.96;100828.44;4993159;28;102212;-88
2021/08/11 03:19:44;;;;;;;7.77;5.70;;;;;;;23.24;72.73;100822.06;4978377;28;102751;-88
2021/08/11 03:22:12;;;;;;;6.20;5.57;;;;;;;23.24;72.67;100830.41;4979983;28;102159;-88
2021/08/11 03:24:39;;;;;;;6.07;5.47;;;;;;;23.23;72.86;100835.16;4977746;28;102063;-88
2021/08/11 03:27:07;;;;;;;6.63;5.87;;;;;;;23.24;72.94;100839.53;4992800;28;102294;-88
2021/08/11 03:29:34;;;;;;;6.63;5.80;;;;;;;23.23;72.94;100832.38;4979740;28;102769;-88
2021/08/11 03:32:01;;;;;;;7.32;5.78;;;;;;;23.24;73.03;100833.97;4979147;28;102023;-88
2021/08/11 03:34:28;;;;;;;5.88;5.28;;;;;;;23.24;72.92;100839.53;4980449;28;102157;-88
2021/08/11 03:36:56;;;;;;;6.05;5.45;;;;;;;23.23;72.86;100832.38;4979611;28;102230;-88
2021/08/11 03:39:22;;;;;;;5.50;5.00;;;;;;;23.24;73.10;100833.16;4970251;28;103151;-88
2021/08/11 03:41:49;;;;;;;5.35;4.88;;;;;;;23.23;72.95;100832.38;4976103;28;102044;-88
2021/08/11 03:44:17;;;;;;;5.60;5.10;;;;;;;23.23;73.00;100826.00;4965981;28;102097;-88
2021/08/11 03:46:44;;;;;;;5.72;5.22;;;;;;;23.24;73.03;100833.97;4979626;28;102746;-88
2021/08/11 03:49:10;;;;;;;5.25;4.68;;;;;;;23.23;72.79;100829.59;4982309;28;102723;-88
2021/08/11 03:51:37;;;;;;;5.50;5.00;;;;;;;23.24;72.96;100825.66;4989147;28;102206;-88
2021/08/11 03:54:03;;;;;;;5.97;5.38;;;;;;;23.24;72.98;100825.66;4986136;28;102047;-88
2021/08/11 03:56:30;;;;;;;5.00;4.60;;;;;;;23.23;73.03;100826.81;4980078;28;102078;-89
2021/08/11 03:58:56;;;;;;;4.70;4.30;;;;;;;23.24;73.09;100831.19;4977505;28;102766;-88
2021/08/11 04:01:25;;;;;;;5.20;4.70;;;;;;;23.25;73.04;100823.66;4983746;28;102091;-88
2021/08/11 04:03:52;;;;;;;4.65;4.25;;;;;;;23.24;73.13;100822.88;4971529;28;102176;-89
2021/08/11 04:06:18;;;;;;;4.78;4.38;;;;;;;23.24;73.33;100825.66;4976501;28;102252;-88
2021/08/11 04:08:46;;;;;;;4.97;4.50;;;;;;;23.24;72.92;100825.66;4978667;28;102446;-89
2021/08/11 04:11:13;;;;;;;5.50;4.60;;;;;;;23.26;73.40;100814.16;4979856;28;102063;-88
2021/08/11 04:13:40;;;;;;;4.53;4.13;;;;;;;23.25;73.15;100818.91;4976874;28;102073;-88
2021/08/11 04:16:06;;;;;;;5.18;4.70;;;;;;;23.25;73.11;100813.38;4987208;28;102157;-88
2021/08/11 04:18:34;;;;;;;5.22;4.80;;;;;;;23.25;73.13;100818.91;4975946;28;102101;-88
2021/08/11 04:21:01;;;;;;;4.65;4.22;;;;;;;23.26;73.00;100826.13;4975640;28;102305;-89
2021/08/11 04:23:28;;;;;;;4.50;4.10;;;;;;;23.26;73.41;100820.56;4966526;28;102144;-88
2021/08/11 04:25:55;;;;;;;6.68;4.90;;;;;;;23.27;73.10;100816.63;4978725;28;102193;-88
2021/08/11 04:28:22;;;;;;;4.72;4.28;;;;;;;23.26;73.25;100828.88;4977818;28;102738;-88
2021/08/11 04:30:52;;;;;;;5.75;5.15;;;;;;;23.26;73.14;100820.56;4977433;28;102118;-89
2021/08/11 04:33:18;;;;;;;5.53;4.95;;;;;;;23.26;73.10;100819.72;4979129;28;101914;-88
2021/08/11 04:35:47;;;;;;;5.70;5.10;;;;;;;23.27;73.21;100818.59;4982910;28;102116;-88
2021/08/11 04:38:13;;;;;;;5.32;4.82;;;;;;;23.27;73.31;100815.81;4984295;28;103666;-88
2021/08/11 04:40:40;;;;;;;5.30;4.80;;;;;;;23.26;73.21;100820.56;4978129;28;102480;-88
2021/08/11 04:43:07;;;;;;;5.15;4.65;;;;;;;23.26;73.45;100820.56;4979647;28;102441;-88
2021/08/11 04:45:35;;;;;;;4.93;4.40;;;;;;;23.27;73.11;100830.50;4976846;28;102144;-88
2021/08/11 04:48:01;;;;;;;5.57;4.82;;;;;;;23.27;73.14;100826.91;4978531;28;102729;-88
2021/08/11 04:50:28;;;;;;;4.70;4.30;;;;;;;23.26;73.11;100814.16;4974312;28;102105;-88
2021/08/11 04:52:56;;;;;;;4.72;4.32;;;;;;;23.26;73.02;100826.13;4972869;28;102275;-88
2021/08/11 04:55:22;;;;;;;4.72;4.18;;;;;;;23.28;73.13;100822.97;4974565;28;102171;-88
2021/08/11 04:57:49;;;;;;;5.03;4.53;;;;;;;23.28;73.24;100817.41;4976247;28;102104;-87
2021/08/11 05:00:16;;;;;;;4.80;4.40;;;;;;;23.27;73.43;100827.72;4975872;28;102276;-88
2021/08/11 05:02:43;;;;;;;4.80;4.40;;;;;;;23.26;73.10;100828.88;4983710;28;102171;-88
2021/08/11 05:05:10;;;;;;;4.50;4.10;;;;;;;23.28;73.25;100820.19;4975641;28;102223;-88
2021/08/11 05:07:36;;;;;;;4.15;3.78;;;;;;;23.27;73.32;100830.50;4973797;28;102861;-88
2021/08/11 05:10:05;;;;;;;4.63;4.10;;;;;;;23.27;73.33;100822.16;4982333;28;103821;-89
2021/08/11 05:12:33;;;;;;;4.80;4.40;;;;;;;23.29;73.29;100829.31;4981977;28;101947;-89
2021/08/11 05:15:00;;;;;;;4.28;3.88;;;;;;;23.27;73.44;100833.28;4982067;28;102092;-88
2021/08/11 05:17:26;;;;;;;4.22;3.90;;;;;;;23.29;73.19;100829.31;4981043;28;102701;-89
2021/08/11 05:19:53;;;;;;;4.55;4.07;;;;;;;23.30;73.29;100836.47;4983251;28;102102;-89
2021/08/11 05:22:21;;;;;;;4.63;4.22;;;;;;;23.30;73.36;100839.25;4982333;28;101957;-89
2021/08/11 05:24:48;;;;;;;5.38;4.03;;;;;;;23.29;73.16;100845.97;4982619;28;102233;-89
2021/08/11 05:27:16;;;;;;;4.35;3.95;;;;;;;23.30;73.21;100850.38;4981913;28;102690;-89
2021/08/11 05:29:44;;;;;;;4.15;3.85;;;;;;;23.29;73.31;100854.31;4986337;28;101905;-89
2021/08/11 05:32:11;;;;;;;4.20;3.80;;;;;;;23.31;73.17;100852.00;4970152;28;102017;-89
2021/08/11 05:34:38;;;;;;;4.43;4.03;;;;;;;23.31;72.94;100849.22;4972205;28;102065;-89
2021/08/11 05:37:05;;;;;;;4.18;3.88;;;;;;;23.31;73.25;100852.81;4976189;28;102814;-88
2021/08/11 05:39:32;;;;;;;4.85;4.35;;;;;;;23.31;73.09;100855.59;4963759;28;102023;-89
2021/08/11 05:41:59;;;;;;;4.53;4.13;;;;;;;23.32;73.11;100846.09;4995490;28;102034;-89
2021/08/11 05:44:27;;;;;;;4.57;4.15;;;;;;;23.32;73.02;100856.38;4977355;28;102105;-89
2021/08/11 05:46:53;;;;;;;4.13;3.73;;;;;;;23.33;73.47;100855.22;4975949;28;102028;-89
2021/08/11 05:49:20;;;;;;;4.43;4.03;;;;;;;23.33;73.27;100842.13;4982199;28;102092;-89
2021/08/11 05:51:46;;;;;;;4.07;3.78;;;;;;;23.34;73.42;100841.00;4981795;28;102115;-89
2021/08/11 05:54:13;;;;;;;4.65;4.05;;;;;;;23.35;73.38;100839.81;4983748;28;102196;-89
2021/08/11 05:56:40;;;;;;;4.47;4.07;;;;;;;23.35;73.14;100848.16;4979596;28;102760;-89
2021/08/11 05:59:06;;;;;;;3.95;3.65;;;;;;;23.37;73.23;100847.78;4981978;28;102062;-89
2021/08/11 06:01:34;;;;;;;4.13;3.80;;;;;;;23.37;73.20;100842.22;4981402;28;101956;-89
2021/08/11 06:04:01;;;;;;;4.43;4.03;;;;;;;23.39;72.91;100851.03;4981600;28;102127;-89
2021/08/11 06:06:28;;;;;;;4.38;3.97;;;;;;;23.40;72.95;100847.09;4982025;28;102774;-89
2021/08/11 06:08:55;;;;;;;6.25;4.22;;;;;;;23.40;72.96;100841.53;4985458;28;102137;-88
2021/08/11 06:11:22;;;;;;;4.80;4.30;;;;;;;23.41;73.00;100848.72;4983030;28;102132;-89
2021/08/11 06:13:49;;;;;;;4.57;4.18;;;;;;;23.41;72.83;100843.16;4977928;28;102218;-89
2021/08/11 06:16:15;;;;;;;5.07;3.97;;;;;;;23.42;72.95;100839.22;4976287;28;104014;-89
2021/08/11 06:18:43;;;;;;;4.53;3.90;;;;;;;23.42;73.10;100842.00;4976886;28;102068;-89
2021/08/11 06:21:10;;;;;;;5.37;4.00;;;;;;;23.43;72.69;100838.03;4982529;28;102298;-89
2021/08/11 06:23:36;;;;;;;4.32;3.97;;;;;;;23.43;72.94;100830.50;4985314;28;102197;-89
2021/08/11 06:26:03;;;;;;;4.43;4.03;;;;;;;23.45;73.03;100838.50;4982569;28;102730;-89
2021/08/11 06:28:30;;;;;;;4.40;4.00;;;;;;;23.46;72.88;100840.13;4981312;28;101976;-89
2021/08/11 06:30:56;;;;;;;4.40;4.00;;;;;;;23.46;72.93;100834.56;4979837;28;102187;-89
2021/08/11 06:33:23;;;;;;;4.13;3.78;;;;;;;23.47;73.08;100836.16;4985395;28;102059;-89
2021/08/11 06:35:51;;;;;;;4.43;3.97;;;;;;;23.47;72.85;100825.06;4969314;28;101973;-89
2021/08/11 06:38:18;;;;;;;4.75;3.78;;;;;;;23.47;72.75;100825.84;4982421;28;102025;-89
2021/08/11 06:40:44;;;;;;;4.38;3.95;;;;;;;23.49;72.75;100822.75;4982241;28;102086;-88
2021/08/11 06:43:10;;;;;;;5.28;4.10;;;;;;;23.50;72.67;100821.56;4983331;28;102149;-89
2021/08/11 06:45:37;;;;;;;4.03;3.72;;;;;;;23.51;72.66;100823.19;4982226;28;102707;-89
2021/08/11 06:48:04;;;;;;;5.28;4.28;;;;;;;23.51;72.63;100820.41;4977634;28;102253;-89
2021/08/11 06:50:31;;;;;;;4.32;3.92;;;;;;;23.52;72.68;100822.03;4978572;28;103488;-90
2021/08/11 06:52:59;;;;;;;4.07;3.75;;;;;;;23.53;72.71;100814.50;4982837;28;102104;-90
2021/08/11 06:55:26;;;;;;;4.32;3.80;;;;;;;23.53;72.81;100817.28;4978656;28;103245;-89
2021/08/11 06:57:53;;;;;;;4.45;4.05;;;;;;;23.53;72.60;100818.09;4982775;28;102167;-89
2021/08/11 07:00:19;;;;;;;4.65;4.05;;;;;;;23.53;72.53;100818.09;4990224;28;102253;-89
2021/08/11 07:02:46;;;;;;;4.40;4.00;;;;;;;23.54;72.61;100825.25;4981471;28;102070;-89
2021/08/11 07:05:13;;;;;;;4.57;4.18;;;;;;;23.55;72.34;100814.94;4982548;28;102765;-89
2021/08/11 07:07:40;;;;;;;4.43;4.03;;;;;;;23.56;72.31;100811.81;4980768;28;102074;-89
2021/08/11 07:10:10;;;;;;;4.25;3.85;;;;;;;23.58;72.47;100817.81;4979110;28;102309;-90
2021/08/11 07:12:37;;;;;;;4.40;3.85;;;;;;;23.58;72.60;100812.25;4980925;28;102191;-89
2021/08/11 07:15:05;;;;;;;4.43;4.03;;;;;;;23.58;72.52;100803.91;4978586;28;102885;-89
2021/08/11 07:17:31;;;;;;;5.33;4.27;;;;;;;23.59;72.61;100804.75;4970231;28;101891;-89
2021/08/11 07:19:58;;;;;;;4.18;3.80;;;;;;;23.59;72.25;100805.56;4976675;28;102163;-90
2021/08/11 07:22:24;;;;;;;3.95;3.65;;;;;;;23.60;72.40;100807.16;4976756;28;102308;-90
2021/08/11 07:24:51;;;;;;;4.38;3.70;;;;;;;23.62;72.62;100806.78;4979512;28;102734;-88
2021/08/11 07:27:20;;;;;;;4.05;3.65;;;;;;;23.61;72.39;100808.75;4979621;28;102239;-88
2021/08/11 07:29:46;;;;;;;5.00;3.80;;;;;;;23.62;72.51;100804.84;4982434;28;101811;-89
2021/08/11 07:32:12;;;;;;;3.83;3.53;;;;;;;23.62;72.37;100804.84;4982216;28;102309;-89
2021/08/11 07:34:39;;;;;;;3.65;3.35;;;;;;;23.63;72.19;100800.88;4983181;28;102696;-88
2021/08/11 07:37:07;;;;;;;3.83;3.53;;;;;;;23.64;72.39;100796.94;4982558;28;102051;-89
2021/08/11 07:39:34;;;;;;;3.90;3.60;;;;;;;23.64;72.58;100791.38;4973675;28;102046;-88
2021/08/11 07:42:00;;;;;;;4.13;3.70;;;;;;;23.64;72.42;100788.59;4983113;28;102164;-89
2021/08/11 07:44:28;;;;;;;4.13;3.67;;;;;;;23.65;72.33;100790.22;4985690;28;102622;-89
2021/08/11 07:46:55;;;;;;;4.00;3.70;;;;;;;23.67;72.28;100795.44;4981599;28;102123;-88
2021/08/11 07:49:21;;;;;;;5.03;3.67;;;;;;;23.66;72.32;100794.63;4983388;28;102167;-89
2021/08/11 07:51:48;;;;;;;3.80;3.45;;;;;;;23.67;71.96;100789.91;4980464;28;102226;-88
2021/08/11 07:54:14;;;;;;;3.80;3.50;;;;;;;23.67;72.41;100785.16;4982653;28;104569;-89
2021/08/11 07:56:42;;;;;;;4.25;3.40;;;;;;;23.68;72.22;100792.31;4982221;28;102062;-88
2021/08/11 07:59:08;;;;;;;3.80;3.35;;;;;;;23.69;72.18;100782.81;4979354;28;102100;-88
2021/08/11 08:01:36;;;;;;;3.63;3.33;;;;;;;23.69;72.13;100788.38;4989152;28;102211;-87
2021/08/11 08:04:03;;;;;;;4.20;3.80;;;;;;;23.70;72.26;100783.63;4980919;28;102768;-89
2021/08/11 08:06:30;;;;;;;3.80;3.45;;;;;;;23.70;72.22;100780.84;4983319;28;101975;-89
2021/08/11 08:08:56;;;;;;;3.78;3.47;;;;;;;23.70;72.08;100778.06;4984105;28;102038;-89
2021/08/11 08:11:23;;;;;;;6.75;3.83;;;;;;;23.71;72.17;100774.91;4984010;28;102040;-89
2021/08/11 08:13:49;;;;;;;3.80;3.40;;;;;;;23.72;72.13;100770.16;4994549;28;103167;-89
2021/08/11 08:16:16;;;;;;;4.43;4.03;;;;;;;23.72;71.97;100770.16;4982611;28;102033;-89
2021/08/11 08:18:45;;;;;;;4.22;3.83;;;;;;;23.72;72.15;100770.97;4981732;28;102005;-88
2021/08/11 08:21:11;;;;;;;4.20;3.90;;;;;;;23.72;72.17;100773.75;4982604;28;102072;-89
2021/08/11 08:23:39;;;;;;;3.97;3.60;;;;;;;23.72;71.97;100768.19;4984484;28;102692;-88
2021/08/11 08:26:06;;;;;;;4.20;3.90;;;;;;;23.72;72.19;100768.19;4984478;28;102191;-89
2021/08/11 08:28:32;;;;;;;4.05;3.75;;;;;;;23.73;72.02;100774.56;4982429;28;102019;-88
2021/08/11 08:30:59;;;;;;;4.15;3.75;;;;;;;23.73;72.08;100766.25;4985018;28;102236;-89
2021/08/11 08:33:25;;;;;;;3.80;3.50;;;;;;;23.73;71.87;100764.25;4983086;28;102394;-89
2021/08/11 08:35:53;;;;;;;3.70;3.40;;;;;;;23.73;72.00;100747.59;4980912;28;102130;-89
2021/08/11 08:38:20;;;;;;;3.80;3.50;;;;;;;23.73;71.81;100755.94;4981733;28;101945;-89
2021/08/11 08:40:47;;;;;;;4.13;3.72;;;;;;;23.73;71.65;100744.81;4980946;28;102104;-89
2021/08/11 08:43:15;;;;;;;4.20;3.75;;;;;;;23.73;71.77;100744.00;4967165;28;102543;-89
2021/08/11 08:45:44;;;;;;;3.78;3.47;;;;;;;23.73;71.68;100750.38;4982996;28;102071;-88
2021/08/11 08:48:11;;;;;;;4.40;4.10;;;;;;;23.73;71.96;100742.03;4982316;28;102129;-89
2021/08/11 08:50:40;;;;;;;3.83;3.53;;;;;;;23.73;71.81;100750.38;4983529;28;102034;-88
2021/08/11 08:53:09;;;;;;;3.83;3.53;;;;;;;23.73;71.65;100750.38;4980347;28;102641;-88
2021/08/11 08:55:37;;;;;;;4.00;3.70;;;;;;;23.73;71.77;100744.81;4980847;28;102110;-89
2021/08/11 08:58:04;;;;;;;4.88;4.50;;;;;;;23.73;71.58;100739.25;4985224;28;101947;-89
2021/08/11 09:00:31;;;;;;;4.63;4.22;;;;;;;23.73;71.48;100733.69;4970138;28;102053;-88
2021/08/11 09:02:58;;;;;;;4.60;4.18;;;;;;;23.73;71.56;100736.47;4981512;28;102801;-88
2021/08/11 09:05:26;;;;;;;4.18;3.80;;;;;;;23.73;71.65;100742.03;4981571;28;102157;-89
2021/08/11 09:07:52;;;;;;;4.33;3.93;;;;;;;23.73;71.73;100744.81;4969313;28;101999;-89
2021/08/11 09:10:23;;;;;;;4.20;3.90;;;;;;;23.74;71.43;100732.53;4981307;28;102073;-89
2021/08/11 09:12:51;;;;;;;4.43;4.10;;;;;;;23.74;71.24;100738.09;4981148;28;103879;-89
2021/08/11 09:15:28;;;;;;;4.75;4.28;;;;;;;23.73;71.47;100733.69;4985457;28;101975;-89
2021/08/11 09:18:08;;;;;;;4.25;3.25;;;;;;;23.74;71.39;100737.28;4974835;28;102088;-88
2021/08/11 09:20:35;;;;;;;4.28;3.97;;;;;;;23.73;71.39;100730.94;4970301;28;102035;-90
2021/08/11 09:23:02;;;;;;;4.93;4.18;;;;;;;23.73;71.23;100736.47;4981601;28;102785;-90
2021/08/11 09:25:30;;;;;;;4.38;4.07;;;;;;;23.73;71.26;100733.69;4979991;28;102148;-88
2021/08/11 09:27:57;;;;;;;4.32;4.03;;;;;;;23.73;71.24;100728.16;4981387;28;101874;-91
2021/08/11 09:30:25;;;;;;;4.53;4.13;;;;;;;23.73;71.40;100728.16;4983574;28;102218;-90
2021/08/11 09:32:54;;;;;;;4.27;3.97;;;;;;;23.73;71.26;100728.16;4979842;28;102779;-89
2021/08/11 09:35:23;;;;;;;4.88;4.47;;;;;;;23.72;71.37;100723.72;4977882;28;102048;-90
2021/08/11 09:37:50;;;;;;;4.15;3.85;;;;;;;23.72;71.37;100720.97;4980994;28;102057;-89
2021/08/11 09:40:19;;;;;;;4.32;4.03;;;;;;;23.73;71.43;100727.34;4986553;28;102130;-89
2021/08/11 09:42:53;;;;;;;4.03;3.72;;;;;;;23.73;71.42;100722.59;4970656;28;102736;-88
2021/08/11 09:45:19;;;;;;;4.03;3.72;;;;;;;23.72;71.22;100720.97;4983732;28;102062;-89
2021/08/11 09:47:57;;;;;;;5.55;4.40;;;;;;;23.73;71.46;100728.16;4986812;28;101931;-88
2021/08/11 09:50:39;;;;;;;4.68;4.28;;;;;;;23.72;71.32;100720.97;4984037;28;101930;-88
2021/08/11 09:53:06;;;;;;;4.40;4.00;;;;;;;23.72;71.46;100726.50;4983342;28;102713;-89
2021/08/11 09:56:00;;;;;;;4.43;4.13;;;;;;;23.72;71.51;100732.06;4985291;28;101727;-89
2021/08/11 09:58:30;;;;;;;4.00;3.72;;;;;;;23.72;71.26;100725.72;4978371;28;102238;-89
2021/08/11 10:00:57;;;;;;;4.20;3.88;;;;;;;23.71;71.57;100735.22;4979262;28;102034;-88
2021/08/11 10:03:23;;;;;;;4.32;4.03;;;;;;;23.72;71.54;100732.06;4986072;28;102802;-88
2021/08/11 10:05:52;;;;;;;4.32;4.03;;;;;;;23.71;71.74;100736.03;4991629;28;102120;-88
2021/08/11 10:08:30;;;;;;;5.55;4.63;;;;;;;23.71;71.45;100733.25;4982296;28;101804;-89
2021/08/11 10:10:57;;;;;;;4.33;4.03;;;;;;;23.71;71.48;100727.69;4986400;28;102133;-87
2021/08/11 10:13:24;;;;;;;4.65;4.25;;;;;;;23.71;71.47;100730.47;4984691;28;104336;-88
2021/08/11 10:15:53;;;;;;;4.35;4.05;;;;;;;23.71;71.23;100736.03;4979117;28;102045;-88
2021/08/11 10:18:24;;;;;;;4.68;4.35;;;;;;;23.70;71.37;100742.75;4985786;28;101935;-88
2021/08/11 10:20:54;;;;;;;4.50;4.10;;;;;;;23.70;71.25;100742.75;4986689;28;101996;-88
2021/08/11 10:23:20;;;;;;;4.75;4.35;;;;;;;23.70;71.30;100745.53;4976316;28;102751;-89
2021/08/11 10:25:48;;;;;;;4.63;4.22;;;;;;;23.69;71.28;100738.38;4983534;28;102173;-88
2021/08/11 10:28:22;;;;;;;4.63;4.28;;;;;;;23.69;71.00;100737.53;4981705;28;102136;-89
2021/08/11 10:30:50;;;;;;;4.57;4.28;;;;;;;23.70;71.29;100739.97;4972363;28;102120;-88
2021/08/11 10:33:19;;;;;;;4.75;4.35;;;;;;;23.70;71.09;100750.28;4985207;28;102778;-89
2021/08/11 10:35:47;;;;;;;4.63;4.30;;;;;;;23.69;71.10;100738.38;4980721;28;102210;-89
2021/08/11 10:38:15;;;;;;;4.47;4.13;;;;;;;23.69;71.12;100740.31;4980512;28;102015;-89
2021/08/11 10:40:48;;;;;;;4.90;4.50;;;;;;;23.69;71.38;100743.94;4986967;28;102301;-88
2021/08/11 10:43:15;;;;;;;4.60;4.22;;;;;;;23.69;71.13;100727.25;4981585;28;102741;-89
2021/08/11 10:45:52;;;;;;;4.82;4.43;;;;;;;23.67;71.23;100729.56;4975564;28;102067;-88
2021/08/11 10:48:20;;;;;;;4.30;3.95;;;;;;;23.67;71.36;100729.56;4978913;28;101897;-89
2021/08/11 10:50:47;;;;;;;4.97;4.57;;;;;;;23.68;71.27;100730.38;4981813;28;102001;-88
2021/08/11 10:53:14;;;;;;;4.30;4.00;;;;;;;23.67;71.17;100726.78;4972244;28;102814;-88
2021/08/11 10:55:43;;;;;;;4.50;4.20;;;;;;;23.67;71.45;100734.34;4982361;28;101966;-88
2021/08/11 10:58:10;;;;;;;4.50;4.20;;;;;;;23.66;71.18;100727.94;4980222;28;101969;-89
2021/08/11 11:00:41;;;;;;;4.60;4.30;;;;;;;23.67;71.16;100728.78;4983970;28;102198;-88
2021/08/11 11:03:09;;;;;;;4.43;4.10;;;;;;;23.67;71.25;100726.00;4982224;28;102021;-88
2021/08/11 11:06:01;;;;;;;4.90;4.50;;;;;;;23.64;71.17;100719.16;4983685;28;101762;-88
2021/08/11 11:08:32;;;;;;;4.53;4.18;;;;;;;23.65;70.83;100717.16;4984248;28;102049;-88
2021/08/11 11:11:31;;;;;;;4.40;4.10;;;;;;;23.64;70.89;100715.56;4983735;28;102077;-89
2021/08/11 11:13:58;;;;;;;4.47;4.18;;;;;;;23.64;71.41;100730.25;4979929;28;102697;-88
2021/08/11 11:17:09;;;;;;;4.65;4.35;;;;;;;23.64;71.01;100724.72;4985976;28;102063;-89
2021/08/11 11:20:26;;;;;;;6.05;4.57;;;;;;;23.63;71.09;100723.09;4972644;28;101958;-89
2021/08/11 11:23:01;;;;;;;4.93;4.53;;;;;;;23.63;70.95;100714.78;4989713;28;102208;-89